createdAt,value
2022-08-25T00:00:17.452Z,39.63
2022-08-25T00:02:55.589Z,39.59
2022-08-25T00:05:23.458Z,39.66
2022-08-25T00:08:00.267Z,39.64
2022-08-25T00:10:33.418Z,39.61
2022-08-25T00:13:06.474Z,39.20
2022-08-25T00:15:39.500Z,38.91
2022-08-25T00:18:19.886Z,38.86
2022-08-25T00:20:49.069Z,38.96
2022-08-25T00:23:18.397Z,38.79
2022-08-25T00:25:51.410Z,38.49
2022-08-25T00:28:24.396Z,38.45
2022-08-25T00:30:57.461Z,38.39
2022-08-25T00:33:30.486Z,38.34
2022-08-25T00:36:03.416Z,38.48
2022-08-25T00:38:36.481Z,38.33
2022-08-25T00:41:09.496Z,38.44
2022-08-25T00:43:42.473Z,38.46
2022-08-25T00:46:15.646Z,38.47
2022-08-25T00:48:48.449Z,38.52
2022-08-25T00:51:21.521Z,38.72
2022-08-25T00:53:54.256Z,38.86
2022-08-25T00:56:28.528Z,38.92
2022-08-25T00:59:01.452Z,38.90
2022-08-25T01:01:34.572Z,38.98
2022-08-25T01:04:07.527Z,38.97
2022-08-25T01:06:40.544Z,39.10
2022-08-25T01:09:13.578Z,39.17
2022-08-25T01:11:46.531Z,39.28
2022-08-25T01:14:19.558Z,39.39
2022-08-25T01:16:53.950Z,39.38
2022-08-25T01:19:25.480Z,39.58
2022-08-25T01:21:58.516Z,39.38
2022-08-25T01:24:31.257Z,39.29
2022-08-25T01:27:04.558Z,39.32
2022-08-25T01:29:37.590Z,39.66
2022-08-25T01:32:10.572Z,39.57
2022-08-25T01:34:43.551Z,39.56
2022-08-25T01:37:16.558Z,39.35
2022-08-25T01:39:49.662Z,39.39
2022-08-25T01:42:22.532Z,39.25
2022-08-25T01:44:55.604Z,39.21
2022-08-25T01:47:28.517Z,39.12
2022-08-25T01:50:01.645Z,39.29
2022-08-25T01:52:34.533Z,39.33
2022-08-25T01:55:07.657Z,39.24
2022-08-25T01:57:40.577Z,39.36
2022-08-25T02:00:13.593Z,39.44
2022-08-25T02:02:46.599Z,39.32
2022-08-25T02:05:23.307Z,39.43
2022-08-25T02:07:52.580Z,39.61
2022-08-25T02:10:25.621Z,39.71
2022-08-25T02:12:58.624Z,39.69
2022-08-25T02:15:31.683Z,39.47
2022-08-25T02:18:04.802Z,39.58
2022-08-25T02:20:37.424Z,39.48
2022-08-25T02:23:10.613Z,39.49
2022-08-25T02:25:43.557Z,39.56
2022-08-25T02:28:16.521Z,39.61
2022-08-25T02:30:49.683Z,39.79
2022-08-25T02:33:22.669Z,39.86
2022-08-25T02:35:55.671Z,39.95
2022-08-25T02:38:28.663Z,40.04
2022-08-25T02:41:01.603Z,40.04
2022-08-25T02:43:34.662Z,40.18
2022-08-25T02:46:07.804Z,40.16
2022-08-25T02:48:40.736Z,40.28
2022-08-25T02:51:13.595Z,40.10
2022-08-25T02:53:46.690Z,40.20
2022-08-25T02:56:19.676Z,40.01
2022-08-25T02:58:52.633Z,40.11
2022-08-25T03:01:28.578Z,40.31
2022-08-25T03:03:58.699Z,40.17
2022-08-25T03:06:31.724Z,39.93
2022-08-25T03:09:04.708Z,39.81
2022-08-25T03:11:37.701Z,39.82
2022-08-25T03:14:10.720Z,39.81
2022-08-25T03:16:43.728Z,39.95
2022-08-25T03:19:16.765Z,40.00
2022-08-25T03:21:49.720Z,40.02
2022-08-25T03:24:22.646Z,39.98
2022-08-25T03:26:55.729Z,39.97
2022-08-25T03:29:28.685Z,39.71
2022-08-25T03:32:01.874Z,39.78
2022-08-25T03:34:34.755Z,39.64
2022-08-25T03:37:07.689Z,39.64
2022-08-25T03:39:40.759Z,39.59
2022-08-25T03:42:13.738Z,39.62
2022-08-25T03:44:46.730Z,39.60
2022-08-25T03:47:19.672Z,39.62
2022-08-25T03:49:52.706Z,39.60
2022-08-25T03:52:25.768Z,39.65
2022-08-25T03:54:58.769Z,39.74
2022-08-25T03:57:31.725Z,39.70
2022-08-25T04:00:04.533Z,39.75
2022-08-25T04:02:37.847Z,39.77
2022-08-25T04:05:10.805Z,39.74
2022-08-25T04:07:43.732Z,39.76
2022-08-25T04:10:16.780Z,39.79
2022-08-25T04:12:49.821Z,39.83
2022-08-25T04:15:22.759Z,40.06
2022-08-25T04:17:55.739Z,40.18
2022-08-25T04:20:28.789Z,40.04
2022-08-25T04:23:01.775Z,40.29
2022-08-25T04:25:34.585Z,40.62
2022-08-25T04:28:07.745Z,41.14
2022-08-25T04:30:40.609Z,41.27
2022-08-25T04:33:13.652Z,41.41
2022-08-25T04:35:46.472Z,41.59
2022-08-25T04:38:19.839Z,41.43
2022-08-25T04:40:52.605Z,41.49
2022-08-25T04:43:25.523Z,41.47
2022-08-25T04:45:58.946Z,41.44
2022-08-25T04:48:31.943Z,41.37
2022-08-25T04:51:05.868Z,41.49
2022-08-25T04:53:38.538Z,41.48
2022-08-25T04:56:11.833Z,41.34
2022-08-25T04:58:44.904Z,41.58
2022-08-25T05:01:17.944Z,41.39
2022-08-25T05:03:50.850Z,41.08
2022-08-25T05:06:23.857Z,40.81
2022-08-25T05:08:56.791Z,40.77
2022-08-25T05:11:29.925Z,40.67
2022-08-25T05:14:02.793Z,40.80
2022-08-25T05:16:35.888Z,40.54
2022-08-25T05:19:08.839Z,40.50
2022-08-25T05:21:41.838Z,40.27
2022-08-25T05:24:17.522Z,40.43
2022-08-25T05:26:50.863Z,40.26
2022-08-25T05:29:23.897Z,40.39
2022-08-25T05:31:56.965Z,40.68
2022-08-25T05:34:29.934Z,40.49
2022-08-25T05:37:02.870Z,40.59
2022-08-25T05:39:35.564Z,40.84
2022-08-25T05:42:08.559Z,41.00
2022-08-25T05:44:41.875Z,40.78
2022-08-25T05:47:14.919Z,40.93
2022-08-25T05:49:47.832Z,40.89
2022-08-25T05:52:20.944Z,40.85
2022-08-25T05:54:53.887Z,40.96
2022-08-25T05:57:26.774Z,40.87
2022-08-25T05:59:59.932Z,41.11
2022-08-25T06:02:32.818Z,41.06
2022-08-25T06:05:05.828Z,41.03
2022-08-25T06:07:38.925Z,41.16
2022-08-25T06:10:11.938Z,41.10
2022-08-25T06:12:44.732Z,41.16
2022-08-25T06:15:17.606Z,41.10
2022-08-25T06:17:50.800Z,41.23
2022-08-25T06:20:25.375Z,41.30
2022-08-25T06:22:57.035Z,41.49
2022-08-25T06:25:29.614Z,41.49
2022-08-25T06:28:02.958Z,41.83
2022-08-25T06:30:35.633Z,41.78
2022-08-25T06:33:08.642Z,41.65
2022-08-25T06:35:41.662Z,41.73
2022-08-25T06:38:14.801Z,41.55
2022-08-25T06:40:47.862Z,41.36
2022-08-25T06:43:20.673Z,41.39
2022-08-25T06:45:53.735Z,41.50
2022-08-25T06:48:26.789Z,41.57
2022-08-25T06:50:59.773Z,41.64
2022-08-25T06:53:32.665Z,41.88
2022-08-25T06:56:06.763Z,41.83
2022-08-25T06:58:38.696Z,42.59
2022-08-25T07:01:15.935Z,42.57
2022-08-25T07:03:44.845Z,42.56
2022-08-25T07:06:18.622Z,42.56
2022-08-25T07:08:50.842Z,42.51
2022-08-25T07:11:23.698Z,42.39
2022-08-25T07:13:56.766Z,42.66
2022-08-25T07:16:31.087Z,42.51
2022-08-25T07:19:02.715Z,42.31
2022-08-25T07:21:35.967Z,42.25
2022-08-25T07:24:08.703Z,42.29
2022-08-25T07:26:41.710Z,42.30
2022-08-25T07:29:18.548Z,42.24
2022-08-25T07:31:51.959Z,42.37
2022-08-25T07:34:25.498Z,42.44
2022-08-25T07:36:57.876Z,42.39
2022-08-25T07:39:30.864Z,42.47
2022-08-25T07:42:03.751Z,42.52
2022-08-25T07:44:36.735Z,42.65
2022-08-25T07:47:09.758Z,42.76
2022-08-25T07:49:42.772Z,42.86
2022-08-25T07:52:15.815Z,42.80
2022-08-25T07:54:48.807Z,42.89
2022-08-25T07:57:21.767Z,42.89
2022-08-25T07:59:54.905Z,42.96
2022-08-25T08:02:27.995Z,42.99
2022-08-25T08:05:00.927Z,42.99
2022-08-25T08:07:43.838Z,42.97
2022-08-25T08:10:37.054Z,43.02
2022-08-25T08:12:39.802Z,43.00
2022-08-25T08:15:12.808Z,43.01
2022-08-25T08:17:45.923Z,43.08
2022-08-25T08:20:23.305Z,43.03
2022-08-25T08:22:51.858Z,42.99
2022-08-25T08:25:27.176Z,43.01
2022-08-25T08:27:58.105Z,42.93
2022-08-25T08:30:30.800Z,42.96
2022-08-25T08:33:11.310Z,43.00
2022-08-25T08:35:36.825Z,42.99
2022-08-25T08:38:14.887Z,42.99
2022-08-25T08:40:42.827Z,42.97
2022-08-25T08:43:18.319Z,43.00
2022-08-25T08:45:49.114Z,43.16
2022-08-25T08:48:21.881Z,43.12
2022-08-25T08:50:55.040Z,43.08
2022-08-25T08:53:27.940Z,43.15
2022-08-25T08:56:00.870Z,43.30
2022-08-25T08:58:33.848Z,43.35
2022-08-25T09:01:06.863Z,43.42
2022-08-25T09:03:40.020Z,43.36
2022-08-25T09:06:12.851Z,43.35
2022-08-25T09:08:46.025Z,43.35
2022-08-25T09:11:19.033Z,43.50
2022-08-25T09:13:51.889Z,43.58
2022-08-25T09:16:34.122Z,43.46
2022-08-25T09:18:58.374Z,43.52
2022-08-25T09:21:31.861Z,43.44
2022-08-25T09:24:05.041Z,43.43
2022-08-25T09:26:37.871Z,43.34
2022-08-25T09:29:16.571Z,43.38
2022-08-25T09:31:45.175Z,43.38
2022-08-25T09:34:17.890Z,43.28
2022-08-25T09:36:50.891Z,43.28
2022-08-25T09:39:23.911Z,43.36
2022-08-25T09:41:57.065Z,43.36
2022-08-25T09:44:30.321Z,43.46
2022-08-25T09:47:02.915Z,43.32
2022-08-25T09:49:35.921Z,43.33
2022-08-25T09:52:09.261Z,43.31
2022-08-25T09:54:47.002Z,43.38
2022-08-25T09:57:16.080Z,43.29
2022-08-25T09:59:57.614Z,43.36
2022-08-25T10:02:28.261Z,43.29
2022-08-25T10:05:00.972Z,43.24
2022-08-25T10:07:33.932Z,43.17
2022-08-25T10:10:07.066Z,43.15
2022-08-25T10:12:42.357Z,43.10
2022-08-25T10:15:12.992Z,43.01
2022-08-25T10:17:46.309Z,42.98
2022-08-25T10:20:19.219Z,42.98
2022-08-25T10:22:51.993Z,42.95
2022-08-25T10:25:24.971Z,43.05
2022-08-25T10:27:58.144Z,43.00
2022-08-25T10:30:30.996Z,42.99
2022-08-25T10:33:04.108Z,43.12
2022-08-25T10:35:37.011Z,43.03
2022-08-25T10:38:10.017Z,43.02
2022-08-25T10:40:43.006Z,43.07
2022-08-25T10:43:16.044Z,43.08
2022-08-25T10:45:49.166Z,43.13
2022-08-25T10:48:22.307Z,43.12
2022-08-25T10:50:55.109Z,43.15
2022-08-25T10:53:28.298Z,43.10
2022-08-25T10:56:01.351Z,43.14
2022-08-25T10:58:34.328Z,43.14
2022-08-25T11:01:07.370Z,43.14
2022-08-25T11:03:40.017Z,43.19
2022-08-25T11:06:13.019Z,43.17
2022-08-25T11:08:46.184Z,43.21
2022-08-25T11:11:19.022Z,43.23
2022-08-25T11:13:52.211Z,43.21
2022-08-25T11:16:25.061Z,43.24
2022-08-25T11:18:58.041Z,43.25
2022-08-25T11:21:31.210Z,43.25
2022-08-25T11:24:04.091Z,43.30
2022-08-25T11:26:37.448Z,43.36
2022-08-25T11:29:12.067Z,43.46
2022-08-25T11:31:43.092Z,43.63
2022-08-25T11:34:16.205Z,43.93
2022-08-25T11:36:49.086Z,43.90
2022-08-25T11:39:22.091Z,43.97
2022-08-25T11:41:55.334Z,44.05
2022-08-25T11:44:28.396Z,43.96
2022-08-25T11:47:01.370Z,44.00
2022-08-25T11:49:34.111Z,44.07
2022-08-25T11:52:07.093Z,44.17
2022-08-25T11:54:41.711Z,44.20
2022-08-25T11:57:13.199Z,44.39
2022-08-25T11:59:46.262Z,44.30
2022-08-25T12:02:19.084Z,44.45
2022-08-25T12:04:53.091Z,44.45
2022-08-25T12:07:25.092Z,44.28
2022-08-25T12:09:58.123Z,44.55
2022-08-25T12:12:31.354Z,44.40
2022-08-25T12:15:04.146Z,44.56
2022-08-25T12:17:37.312Z,44.41
2022-08-25T12:20:10.383Z,44.58
2022-08-25T12:22:43.377Z,44.52
2022-08-25T12:25:16.253Z,44.45
2022-08-25T12:27:49.239Z,44.40
2022-08-25T12:30:22.435Z,44.44
2022-08-25T12:32:55.477Z,44.44
2022-08-25T12:35:29.539Z,44.47
2022-08-25T12:38:01.477Z,44.43
2022-08-25T12:40:34.180Z,44.44
2022-08-25T12:43:07.319Z,44.41
2022-08-25T12:45:40.476Z,44.43
2022-08-25T12:48:13.457Z,44.55
2022-08-25T12:50:46.499Z,44.48
2022-08-25T12:53:19.456Z,44.40
2022-08-25T12:55:52.533Z,44.37
2022-08-25T12:58:31.191Z,44.45
2022-08-25T13:01:00.955Z,44.47
2022-08-25T13:03:31.594Z,44.51
2022-08-25T13:06:04.214Z,44.44
2022-08-25T13:08:37.186Z,44.45
2022-08-25T13:11:10.197Z,44.42
2022-08-25T13:13:43.309Z,44.43
2022-08-25T13:16:16.297Z,44.44
2022-08-25T13:18:51.640Z,44.45
2022-08-25T13:21:22.475Z,44.44
2022-08-25T13:24:04.849Z,44.46
2022-08-25T13:26:28.577Z,44.59
2022-08-25T13:29:02.065Z,44.55
2022-08-25T13:31:34.576Z,44.42
2022-08-25T13:34:07.514Z,44.47
2022-08-25T13:36:43.456Z,44.45
2022-08-25T13:39:13.497Z,44.52
2022-08-25T13:41:46.534Z,44.45
2022-08-25T13:44:19.540Z,44.44
2022-08-25T13:46:52.607Z,44.37
2022-08-25T13:49:25.542Z,44.54
2022-08-25T13:51:58.515Z,44.46
2022-08-25T13:54:31.619Z,44.43
2022-08-25T13:57:04.509Z,44.39
2022-08-25T13:59:40.236Z,44.42
2022-08-25T14:02:19.245Z,44.46
2022-08-25T14:04:51.482Z,44.47
2022-08-25T14:07:19.511Z,44.64
2022-08-25T14:09:49.604Z,44.58
2022-08-25T14:12:22.661Z,44.58
2022-08-25T14:14:55.627Z,44.64
2022-08-25T14:17:39.129Z,44.61
2022-08-25T14:20:01.482Z,44.70
2022-08-25T14:22:34.282Z,44.80
2022-08-25T14:25:07.323Z,44.74
2022-08-25T14:27:56.937Z,44.69
2022-08-25T14:30:13.329Z,44.64
2022-08-25T14:32:46.357Z,44.52
2022-08-25T14:35:19.318Z,44.50
2022-08-25T14:37:52.715Z,44.46
2022-08-25T14:40:25.433Z,44.46
2022-08-25T14:42:58.478Z,44.44
2022-08-25T14:45:31.619Z,44.40
2022-08-25T14:48:04.390Z,44.32
2022-08-25T14:50:37.331Z,44.28
2022-08-25T14:53:10.641Z,44.28
2022-08-25T14:55:43.567Z,44.42
2022-08-25T14:58:16.341Z,44.22
2022-08-25T15:00:49.595Z,44.18
2022-08-25T15:03:22.345Z,44.24
2022-08-25T15:05:55.763Z,44.26
2022-08-25T15:08:32.903Z,44.27
2022-08-25T15:11:01.459Z,44.39
2022-08-25T15:13:34.376Z,44.34
2022-08-25T15:16:07.389Z,44.45
2022-08-25T15:18:40.367Z,44.45
2022-08-25T15:21:13.523Z,44.48
2022-08-25T15:23:46.548Z,44.69
2022-08-25T15:26:19.392Z,44.56
2022-08-25T15:28:52.457Z,44.56
2022-08-25T15:31:25.447Z,44.52
2022-08-25T15:33:58.416Z,44.41
2022-08-25T15:36:31.463Z,44.38
2022-08-25T15:39:04.704Z,44.35
2022-08-25T15:41:37.683Z,44.35
2022-08-25T15:44:10.402Z,44.34
2022-08-25T15:46:47.032Z,44.29
2022-08-25T15:49:20.730Z,44.35
2022-08-25T15:51:49.693Z,44.57
2022-08-25T15:54:22.454Z,44.54
2022-08-25T15:56:55.546Z,44.50
2022-08-25T15:59:28.657Z,44.59
2022-08-25T16:02:01.512Z,44.58
2022-08-25T16:04:34.448Z,44.48
2022-08-25T16:07:07.609Z,44.40
2022-08-25T16:09:40.476Z,44.35
2022-08-25T16:12:13.519Z,44.33
2022-08-25T16:14:46.442Z,44.24
2022-08-25T16:17:19.489Z,44.53
2022-08-25T16:19:52.621Z,44.64
2022-08-25T16:22:39.424Z,44.79
2022-08-25T16:25:12.495Z,44.63
2022-08-25T16:27:45.840Z,44.77
2022-08-25T16:30:18.472Z,44.72
2022-08-25T16:32:51.633Z,44.68
2022-08-25T16:35:24.501Z,44.71
2022-08-25T16:37:57.518Z,44.58
2022-08-25T16:40:30.657Z,44.52
2022-08-25T16:43:03.498Z,44.39
2022-08-25T16:45:36.493Z,44.43
2022-08-25T16:48:09.541Z,44.40
2022-08-25T16:50:42.574Z,44.43
2022-08-25T16:53:15.590Z,44.39
2022-08-25T16:56:02.491Z,44.32
2022-08-25T16:58:35.507Z,44.28
2022-08-25T17:01:09.555Z,44.33
2022-08-25T17:03:44.098Z,44.32
2022-08-25T17:06:15.216Z,44.47
2022-08-25T17:08:47.564Z,44.45
2022-08-25T17:11:20.552Z,44.53
2022-08-25T17:13:53.868Z,44.58
2022-08-25T17:16:27.092Z,44.64
2022-08-25T17:19:00.918Z,44.67
2022-08-25T17:21:33.841Z,44.77
2022-08-25T17:24:06.853Z,44.67
2022-08-25T17:26:39.826Z,44.75
2022-08-25T17:29:12.777Z,44.72
2022-08-25T17:31:45.979Z,44.66
2022-08-25T17:34:23.270Z,44.80
2022-08-25T17:36:51.776Z,44.89
2022-08-25T17:39:24.573Z,44.93
2022-08-25T17:41:57.732Z,45.05
2022-08-25T17:44:30.716Z,44.96
2022-08-25T17:47:03.694Z,44.82
2022-08-25T17:49:36.584Z,44.81
2022-08-25T17:52:09.590Z,44.83
2022-08-25T17:54:42.598Z,44.90
2022-08-25T17:57:15.818Z,44.97
2022-08-25T17:59:48.784Z,44.92
2022-08-25T18:02:21.615Z,44.93
2022-08-25T18:04:54.653Z,44.83
2022-08-25T18:07:27.974Z,44.75
2022-08-25T18:10:00.726Z,44.91
2022-08-25T18:12:33.913Z,44.90
2022-08-25T18:15:06.933Z,44.65
2022-08-25T18:17:39.727Z,44.64
2022-08-25T18:20:12.666Z,44.43
2022-08-25T18:22:45.842Z,44.81
2022-08-25T18:25:21.540Z,44.53
2022-08-25T18:27:54.997Z,44.33
2022-08-25T18:30:27.664Z,44.20
2022-08-25T18:33:01.073Z,44.23
2022-08-25T18:35:33.910Z,43.72
2022-08-25T18:38:07.242Z,43.80
2022-08-25T18:40:39.654Z,43.64
2022-08-25T18:43:12.800Z,43.63
2022-08-25T18:45:45.942Z,43.63
2022-08-25T18:48:18.978Z,43.62
2022-08-25T18:50:52.028Z,43.53
2022-08-25T18:53:30.106Z,43.44
2022-08-25T18:55:58.028Z,43.39
2022-08-25T18:58:30.698Z,43.36
2022-08-25T19:01:03.798Z,43.22
2022-08-25T19:03:36.738Z,42.98
2022-08-25T19:06:09.744Z,42.84
2022-08-25T19:08:42.736Z,43.13
2022-08-25T19:11:16.053Z,43.28
2022-08-25T19:13:48.788Z,43.24
2022-08-25T19:16:22.073Z,43.14
2022-08-25T19:18:55.094Z,43.04
2022-08-25T19:21:27.870Z,43.17
2022-08-25T19:24:00.829Z,43.02
2022-08-25T19:26:33.887Z,43.03
2022-08-25T19:29:06.924Z,43.04
2022-08-25T19:31:40.082Z,42.83
2022-08-25T19:34:13.229Z,42.81
2022-08-25T19:36:46.905Z,42.98
2022-08-25T19:39:19.753Z,42.98
2022-08-25T19:41:53.033Z,42.83
2022-08-25T19:44:25.754Z,42.86
2022-08-25T19:47:13.270Z,42.94
2022-08-25T19:49:45.929Z,43.01
2022-08-25T19:52:18.753Z,42.82
2022-08-25T19:54:51.843Z,42.68
2022-08-25T19:57:27.907Z,42.90
2022-08-25T19:59:58.135Z,42.72
2022-08-25T20:02:30.908Z,42.56
2022-08-25T20:05:03.919Z,42.50
2022-08-25T20:07:36.924Z,42.46
2022-08-25T20:10:09.804Z,42.33
2022-08-25T20:12:42.988Z,42.24
2022-08-25T20:15:16.598Z,41.92
2022-08-25T20:17:48.934Z,42.09
2022-08-25T20:20:22.020Z,42.08
2022-08-25T20:22:54.936Z,42.23
2022-08-25T20:25:27.806Z,42.18
2022-08-25T20:28:00.806Z,42.19
2022-08-25T20:30:33.844Z,42.64
2022-08-25T20:33:07.155Z,42.58
2022-08-25T20:35:39.857Z,42.08
2022-08-25T20:38:12.876Z,42.01
2022-08-25T20:40:45.987Z,41.99
2022-08-25T20:43:19.115Z,41.95
2022-08-25T20:45:52.096Z,42.13
2022-08-25T20:48:24.971Z,42.24
2022-08-25T20:50:58.082Z,42.37
2022-08-25T20:53:33.955Z,42.71
2022-08-25T20:56:07.250Z,42.53
2022-08-25T20:58:40.677Z,43.76
2022-08-25T21:01:12.959Z,43.57
2022-08-25T21:03:46.253Z,42.65
2022-08-25T21:06:18.877Z,43.04
2022-08-25T21:08:52.014Z,43.33
2022-08-25T21:11:28.178Z,43.07
2022-08-25T21:14:01.016Z,42.54
2022-08-25T21:16:34.219Z,42.86
2022-08-25T21:19:08.879Z,42.91
2022-08-25T21:21:41.202Z,43.12
2022-08-25T21:24:14.273Z,43.18
2022-08-25T21:26:48.576Z,43.03
2022-08-25T21:29:20.196Z,43.13
2022-08-25T21:31:52.922Z,42.82
2022-08-25T21:34:26.344Z,42.95
2022-08-25T21:37:00.415Z,43.04
2022-08-25T21:39:33.257Z,43.11
2022-08-25T21:42:05.968Z,42.86
2022-08-25T21:44:39.085Z,42.51
2022-08-25T21:47:12.214Z,42.68
2022-08-25T21:49:44.923Z,42.66
2022-08-25T21:52:18.252Z,43.18
2022-08-25T21:54:51.231Z,43.16
2022-08-25T21:57:24.261Z,43.25
2022-08-25T21:59:58.111Z,42.71
2022-08-25T22:02:31.286Z,42.72
2022-08-25T22:05:04.308Z,43.01
2022-08-25T22:07:40.402Z,42.91
2022-08-25T22:10:16.442Z,42.53
2022-08-25T22:12:43.316Z,42.90
2022-08-25T22:15:16.346Z,42.66
2022-08-25T22:17:49.313Z,42.83
2022-08-25T22:20:22.278Z,42.74
2022-08-25T22:22:56.341Z,42.61
2022-08-25T22:25:29.280Z,42.68
2022-08-25T22:28:02.331Z,42.52
2022-08-25T22:30:35.082Z,42.50
2022-08-25T22:33:09.056Z,42.64
2022-08-25T22:35:41.358Z,42.52
2022-08-25T22:38:14.325Z,42.75
2022-08-25T22:40:47.356Z,42.67
2022-08-25T22:43:20.267Z,42.62
2022-08-25T22:45:53.473Z,42.72
2022-08-25T22:48:26.372Z,42.44
2022-08-25T22:50:59.339Z,42.37
2022-08-25T22:53:32.198Z,42.28
2022-08-25T22:56:05.282Z,42.46
2022-08-25T22:58:38.366Z,42.34
2022-08-25T23:01:11.336Z,42.21
2022-08-25T23:03:44.668Z,42.25
2022-08-25T23:06:22.125Z,42.14
2022-08-25T23:08:50.380Z,41.98
2022-08-25T23:11:23.392Z,42.02
2022-08-25T23:13:56.392Z,41.68
2022-08-25T23:16:29.440Z,42.09
2022-08-25T23:19:02.364Z,42.18
2022-08-25T23:21:40.785Z,42.43
2022-08-25T23:24:08.327Z,42.52
2022-08-25T23:26:42.403Z,42.36
2022-08-25T23:29:17.790Z,42.67
2022-08-25T23:31:47.686Z,42.44
2022-08-25T23:34:20.344Z,42.42
2022-08-25T23:36:53.419Z,42.84
2022-08-25T23:39:26.419Z,42.41
2022-08-25T23:41:59.363Z,42.40
2022-08-25T23:44:32.428Z,42.54
2022-08-25T23:47:05.461Z,42.57
2022-08-25T23:49:38.407Z,42.56
2022-08-25T23:52:11.442Z,42.69
2022-08-25T23:54:44.465Z,42.47
2022-08-25T23:57:17.429Z,42.51
2022-08-25T23:59:50.496Z,42.12
